createdAt,value
2022-09-14T00:00:31.427Z,17.49
2022-09-14T00:03:55.208Z,17.50
2022-09-14T00:06:56.743Z,17.50
2022-09-14T00:09:58.239Z,17.51
2022-09-14T00:12:59.913Z,17.52
2022-09-14T00:16:04.873Z,17.52
2022-09-14T00:19:14.627Z,17.52
2022-09-14T00:22:16.087Z,17.51
2022-09-14T00:25:17.731Z,17.51
2022-09-14T00:28:19.183Z,17.52
2022-09-14T00:31:21.628Z,17.51
2022-09-14T00:34:23.249Z,17.51
2022-09-14T00:37:24.975Z,17.51
2022-09-14T00:40:26.552Z,17.51
2022-09-14T00:43:28.105Z,17.50
2022-09-14T00:46:34.573Z,17.50
2022-09-14T00:49:39.703Z,17.49
2022-09-14T00:52:44.923Z,17.48
2022-09-14T00:55:46.540Z,17.47
2022-09-14T00:58:52.576Z,17.46
2022-09-14T01:01:54.986Z,17.45
2022-09-14T01:04:56.923Z,17.45
2022-09-14T01:08:29.044Z,17.44
2022-09-14T01:12:10.462Z,17.43
2022-09-14T01:15:20.541Z,17.42
2022-09-14T01:18:32.209Z,17.41
2022-09-14T01:21:37.616Z,17.40
2022-09-14T01:25:04.667Z,17.39
2022-09-14T01:28:22.438Z,17.38
2022-09-14T01:32:05.293Z,17.36
2022-09-14T01:35:34.634Z,17.35
2022-09-14T01:38:43.448Z,17.34
2022-09-14T01:41:46.917Z,17.34
2022-09-14T01:44:52.685Z,17.32
2022-09-14T01:48:00.186Z,17.32
2022-09-14T01:51:07.803Z,17.31
2022-09-14T01:54:20.066Z,17.29
2022-09-14T01:57:31.274Z,17.29
2022-09-14T02:00:34.062Z,17.28
2022-09-14T02:03:41.386Z,17.27
2022-09-14T02:06:46.893Z,17.26
2022-09-14T02:09:50.347Z,17.25
2022-09-14T02:12:55.131Z,17.24
2022-09-14T02:15:56.729Z,17.23
2022-09-14T02:19:01.161Z,17.22
2022-09-14T02:22:03.226Z,17.21
2022-09-14T02:25:05.245Z,17.20
2022-09-14T02:28:07.305Z,17.19
2022-09-14T02:31:27.188Z,17.19
2022-09-14T02:34:43.126Z,17.18
2022-09-14T02:37:56.842Z,17.17
2022-09-14T02:41:36.544Z,17.16
2022-09-14T02:45:03.909Z,17.15
2022-09-14T02:48:26.576Z,17.13
2022-09-14T02:51:48.869Z,17.11
2022-09-14T02:55:17.282Z,17.11
2022-09-14T02:58:18.789Z,17.10
2022-09-14T03:01:22.601Z,17.09
2022-09-14T03:04:24.167Z,17.07
2022-09-14T03:07:25.735Z,17.06
2022-09-14T03:10:27.885Z,17.05
2022-09-14T03:13:29.209Z,17.04
2022-09-14T03:16:31.194Z,17.04
2022-09-14T03:19:32.697Z,17.02
2022-09-14T03:22:34.258Z,17.01
2022-09-14T03:25:40.835Z,17.00
2022-09-14T03:28:42.831Z,16.99
2022-09-14T03:31:44.312Z,16.97
2022-09-14T03:34:45.823Z,16.97
2022-09-14T03:37:47.293Z,16.96
2022-09-14T03:40:48.864Z,16.95
2022-09-14T03:43:50.746Z,16.94
2022-09-14T03:46:52.375Z,16.93
2022-09-14T03:49:54.125Z,16.93
2022-09-14T03:52:55.790Z,16.92
2022-09-14T03:55:57.920Z,16.91
2022-09-14T03:58:59.413Z,16.91
2022-09-14T04:02:01.700Z,16.90
2022-09-14T04:05:03.456Z,16.90
2022-09-14T04:08:04.999Z,16.89
2022-09-14T04:11:13.979Z,16.87
2022-09-14T04:14:15.947Z,16.86
2022-09-14T04:17:17.727Z,16.85
2022-09-14T04:20:19.627Z,16.84
2022-09-14T04:23:21.181Z,16.83
2022-09-14T04:26:26.183Z,16.82
2022-09-14T04:29:29.837Z,16.80
2022-09-14T04:32:34.410Z,16.80
2022-09-14T04:35:37.157Z,16.78
2022-09-14T04:38:40.309Z,16.76
2022-09-14T04:41:42.325Z,16.75
2022-09-14T04:44:43.854Z,16.74
2022-09-14T04:47:45.509Z,16.73
2022-09-14T04:50:47.270Z,16.73
2022-09-14T04:53:51.096Z,16.72
2022-09-14T04:56:52.620Z,16.72
2022-09-14T04:59:54.110Z,16.71
2022-09-14T05:02:55.670Z,16.69
2022-09-14T05:06:14.638Z,16.69
2022-09-14T05:09:17.689Z,16.68
2022-09-14T05:12:19.150Z,16.67
2022-09-14T05:15:20.630Z,16.67
2022-09-14T05:18:22.133Z,16.67
2022-09-14T05:21:24.558Z,16.68
2022-09-14T05:24:26.237Z,16.70
2022-09-14T05:27:27.712Z,16.73
2022-09-14T05:30:29.284Z,16.78
2022-09-14T05:33:30.733Z,16.83
2022-09-14T05:36:32.230Z,16.89
2022-09-14T05:39:33.862Z,16.95
2022-09-14T05:42:35.405Z,17.01
2022-09-14T05:45:37.000Z,17.07
2022-09-14T05:48:39.868Z,17.12
2022-09-14T05:51:41.421Z,17.17
2022-09-14T05:54:42.865Z,17.24
2022-09-14T05:57:49.178Z,17.29
2022-09-14T06:00:50.595Z,17.33
2022-09-14T06:03:57.768Z,17.39
2022-09-14T06:07:17.323Z,17.44
2022-09-14T06:10:21.125Z,17.49
2022-09-14T06:13:22.866Z,17.53
2022-09-14T06:16:28.839Z,17.57
2022-09-14T06:19:30.380Z,17.60
2022-09-14T06:22:31.854Z,17.63
2022-09-14T06:25:33.271Z,17.67
2022-09-14T06:28:35.657Z,17.70
2022-09-14T06:31:37.534Z,17.73
2022-09-14T06:34:39.684Z,17.76
2022-09-14T06:37:41.149Z,17.80
2022-09-14T06:40:51.514Z,17.84
2022-09-14T06:43:56.158Z,17.87
2022-09-14T06:46:57.614Z,17.90
2022-09-14T06:49:59.800Z,18.02
2022-09-14T06:53:01.326Z,18.15
2022-09-14T06:56:03.006Z,18.26
2022-09-14T06:59:07.544Z,18.35
2022-09-14T07:02:11.638Z,18.42
2022-09-14T07:05:15.081Z,18.51
2022-09-14T07:08:16.661Z,18.60
2022-09-14T07:11:20.900Z,18.66
2022-09-14T07:14:22.512Z,18.72
2022-09-14T07:17:24.073Z,18.78
2022-09-14T07:20:25.701Z,18.83
2022-09-14T07:23:27.457Z,18.86
2022-09-14T07:26:38.874Z,18.90
2022-09-14T07:29:40.461Z,18.94
2022-09-14T07:32:41.940Z,19.02
2022-09-14T07:35:43.421Z,19.11
2022-09-14T07:38:53.215Z,19.16
2022-09-14T07:41:55.063Z,19.16
2022-09-14T07:44:56.565Z,19.15
2022-09-14T07:47:58.718Z,19.13
2022-09-14T07:51:04.251Z,19.10
2022-09-14T07:54:07.770Z,19.08
2022-09-14T07:57:10.681Z,19.05
2022-09-14T08:00:13.802Z,19.01
2022-09-14T08:03:15.842Z,18.99
2022-09-14T08:06:23.284Z,18.97
2022-09-14T08:09:25.679Z,18.96
2022-09-14T08:12:27.356Z,18.96
2022-09-14T08:15:28.930Z,18.96
2022-09-14T08:18:31.230Z,18.96
2022-09-14T08:21:35.028Z,18.97
2022-09-14T08:24:36.540Z,18.99
2022-09-14T08:27:39.075Z,19.01
2022-09-14T08:30:40.959Z,19.03
2022-09-14T08:33:45.842Z,19.05
2022-09-14T08:36:48.536Z,19.07
2022-09-14T08:39:51.787Z,19.10
2022-09-14T08:42:58.137Z,19.14
2022-09-14T08:46:04.125Z,19.19
2022-09-14T08:49:14.107Z,19.22
2022-09-14T08:52:35.311Z,19.25
2022-09-14T08:55:44.589Z,19.33
2022-09-14T08:59:16.791Z,19.38
2022-09-14T09:02:32.611Z,19.44
2022-09-14T09:05:51.209Z,19.49
2022-09-14T09:09:09.683Z,19.55
2022-09-14T09:12:19.921Z,19.60
2022-09-14T09:15:42.479Z,19.65
2022-09-14T09:18:48.814Z,19.70
2022-09-14T09:21:51.279Z,19.78
2022-09-14T09:24:54.450Z,19.89
2022-09-14T09:28:02.814Z,19.98
2022-09-14T09:31:10.230Z,20.02
2022-09-14T09:34:34.336Z,20.05
2022-09-14T09:37:45.975Z,20.09
2022-09-14T09:40:53.797Z,20.13
2022-09-14T09:44:08.786Z,20.19
2022-09-14T09:47:10.600Z,20.24
2022-09-14T09:50:24.510Z,20.26
2022-09-14T09:53:27.046Z,20.25
2022-09-14T09:56:32.780Z,20.24
2022-09-14T09:59:40.456Z,20.21
2022-09-14T10:02:42.075Z,20.19
2022-09-14T10:05:43.672Z,20.17
2022-09-14T10:08:46.974Z,20.17
2022-09-14T10:12:03.319Z,20.19
2022-09-14T10:15:32.382Z,20.26
2022-09-14T10:18:34.977Z,20.36
2022-09-14T10:22:04.997Z,20.43
2022-09-14T10:25:12.616Z,20.52
2022-09-14T10:28:24.252Z,20.62
2022-09-14T10:31:31.069Z,20.70
2022-09-14T10:34:33.209Z,20.78
2022-09-14T10:37:55.854Z,20.84
2022-09-14T10:41:14.793Z,20.91
2022-09-14T10:44:53.220Z,20.93
2022-09-14T10:48:28.412Z,20.93
2022-09-14T10:51:38.403Z,20.91
2022-09-14T10:55:24.876Z,20.86
2022-09-14T10:58:38.960Z,20.78
2022-09-14T11:02:00.878Z,20.70
2022-09-14T11:05:21.258Z,20.63
2022-09-14T11:08:34.846Z,20.55
2022-09-14T11:11:47.849Z,20.51
2022-09-14T11:15:04.210Z,20.50
2022-09-14T11:18:24.520Z,20.53
2022-09-14T11:21:36.022Z,20.57
2022-09-14T11:24:47.917Z,20.60
2022-09-14T11:28:19.060Z,20.62
2022-09-14T11:31:32.277Z,20.63
2022-09-14T11:34:40.578Z,20.62
2022-09-14T11:37:48.736Z,20.60
2022-09-14T11:41:02.261Z,20.55
2022-09-14T11:44:11.865Z,20.51
2022-09-14T11:47:19.646Z,20.46
2022-09-14T11:50:28.102Z,20.40
2022-09-14T11:53:32.119Z,20.35
2022-09-14T11:56:34.014Z,20.30
2022-09-14T11:59:49.717Z,20.24
2022-09-14T12:02:58.490Z,20.18
2022-09-14T12:06:35.055Z,20.11
2022-09-14T12:09:41.199Z,20.03
2022-09-14T12:12:46.674Z,19.96
2022-09-14T12:16:00.834Z,19.90
2022-09-14T12:19:03.155Z,19.84
2022-09-14T12:22:32.479Z,19.78
2022-09-14T12:25:34.596Z,19.73
2022-09-14T12:28:38.929Z,19.68
2022-09-14T12:31:43.787Z,19.65
2022-09-14T12:34:45.262Z,19.59
2022-09-14T12:37:46.765Z,19.55
2022-09-14T12:40:48.224Z,19.50
2022-09-14T12:43:50.075Z,19.46
2022-09-14T12:46:51.705Z,19.41
2022-09-14T12:49:58.001Z,19.37
2022-09-14T12:53:23.663Z,19.32
2022-09-14T12:56:40.379Z,19.24
2022-09-14T13:00:00.956Z,19.18
2022-09-14T13:03:22.438Z,19.12
2022-09-14T13:06:32.023Z,19.06
2022-09-14T13:09:33.998Z,19.02
2022-09-14T13:12:44.615Z,18.98
2022-09-14T13:15:55.351Z,18.94
2022-09-14T13:19:07.981Z,18.89
2022-09-14T13:22:20.433Z,18.87
2022-09-14T13:25:35.911Z,18.84
2022-09-14T13:28:38.459Z,18.80
2022-09-14T13:31:40.527Z,18.79
2022-09-14T13:34:43.403Z,18.79
2022-09-14T13:37:48.305Z,18.79
2022-09-14T13:40:54.711Z,18.81
2022-09-14T13:43:57.826Z,18.82
2022-09-14T13:47:02.759Z,18.83
2022-09-14T13:50:06.853Z,18.83
2022-09-14T13:53:48.153Z,18.81
2022-09-14T13:57:18.854Z,18.79
2022-09-14T14:00:20.974Z,18.78
2022-09-14T14:03:28.195Z,18.77
2022-09-14T14:06:32.188Z,18.78
2022-09-14T14:09:52.523Z,18.80
2022-09-14T14:12:55.108Z,18.83
2022-09-14T14:16:15.180Z,18.86
2022-09-14T14:19:28.158Z,18.89
2022-09-14T14:22:33.518Z,18.91
2022-09-14T14:25:42.145Z,18.93
2022-09-14T14:28:46.639Z,18.93
2022-09-14T14:31:48.560Z,18.94
2022-09-14T14:34:52.418Z,18.93
2022-09-14T14:37:54.600Z,18.92
2022-09-14T14:40:57.401Z,18.90
2022-09-14T14:43:59.012Z,18.89
2022-09-14T14:47:00.443Z,18.88
2022-09-14T14:50:03.618Z,18.87
2022-09-14T14:53:06.117Z,18.86
2022-09-14T14:56:11.380Z,18.85
2022-09-14T14:59:18.958Z,18.84
2022-09-14T15:02:20.436Z,18.83
2022-09-14T15:05:21.990Z,18.82
2022-09-14T15:08:23.526Z,18.82
2022-09-14T15:11:24.967Z,18.81
2022-09-14T15:14:27.452Z,18.80
2022-09-14T15:17:29.038Z,18.79
2022-09-14T15:20:30.498Z,18.78
2022-09-14T15:23:32.510Z,18.77
2022-09-14T15:26:34.620Z,18.77
2022-09-14T15:29:35.953Z,18.76
2022-09-14T15:32:39.719Z,18.76
2022-09-14T15:35:41.191Z,18.74
2022-09-14T15:38:42.655Z,18.73
2022-09-14T15:41:45.135Z,18.73
2022-09-14T15:44:46.869Z,18.72
2022-09-14T15:47:48.553Z,18.71
2022-09-14T15:50:50.040Z,18.70
2022-09-14T15:53:56.927Z,18.68
2022-09-14T15:56:59.485Z,18.67
2022-09-14T16:00:03.931Z,18.66
2022-09-14T16:03:15.191Z,18.65
2022-09-14T16:06:16.745Z,18.64
2022-09-14T16:09:21.924Z,18.64
2022-09-14T16:12:23.751Z,18.62
2022-09-14T16:15:25.461Z,18.61
2022-09-14T16:18:27.225Z,18.61
2022-09-14T16:21:29.440Z,18.59
2022-09-14T16:24:31.644Z,18.58
2022-09-14T16:27:33.258Z,18.57
2022-09-14T16:30:34.910Z,18.56
2022-09-14T16:33:42.535Z,18.54
2022-09-14T16:36:44.946Z,18.52
2022-09-14T16:39:47.534Z,18.50
2022-09-14T16:42:50.908Z,18.49
2022-09-14T16:46:03.220Z,18.47
2022-09-14T16:49:05.558Z,18.46
2022-09-14T16:52:07.421Z,18.45
2022-09-14T16:55:09.406Z,18.44
2022-09-14T16:58:12.055Z,18.43
2022-09-14T17:01:23.196Z,18.41
2022-09-14T17:04:25.158Z,18.41
2022-09-14T17:07:26.817Z,18.40
2022-09-14T17:10:32.669Z,18.39
2022-09-14T17:13:38.230Z,18.38
2022-09-14T17:16:40.129Z,18.37
2022-09-14T17:19:43.827Z,18.36
2022-09-14T17:22:46.923Z,18.36
2022-09-14T17:25:49.112Z,18.35
2022-09-14T17:28:53.598Z,18.34
2022-09-14T17:31:55.331Z,18.34
2022-09-14T17:34:57.121Z,18.32
2022-09-14T17:37:59.370Z,18.31
2022-09-14T17:41:08.435Z,18.30
2022-09-14T17:44:13.106Z,18.29
2022-09-14T17:47:17.269Z,18.28
2022-09-14T17:50:20.817Z,18.27
2022-09-14T17:53:22.772Z,18.26
2022-09-14T17:56:27.511Z,18.26
2022-09-14T17:59:29.556Z,18.26
2022-09-14T18:02:31.850Z,18.25
2022-09-14T18:05:33.983Z,18.24
2022-09-14T18:08:38.168Z,18.23
2022-09-14T18:11:40.306Z,18.22
2022-09-14T18:14:42.133Z,18.21
2022-09-14T18:17:45.769Z,18.20
2022-09-14T18:20:47.736Z,18.20
2022-09-14T18:23:51.112Z,18.18
2022-09-14T18:26:53.101Z,18.17
2022-09-14T18:29:55.070Z,18.15
2022-09-14T18:32:57.093Z,18.15
2022-09-14T18:35:59.523Z,18.14
2022-09-14T18:39:02.001Z,18.14
2022-09-14T18:42:04.157Z,18.12
2022-09-14T18:45:06.197Z,18.10
2022-09-14T18:48:08.246Z,18.10
2022-09-14T18:51:12.275Z,18.09
2022-09-14T18:54:14.708Z,18.08
2022-09-14T18:57:19.344Z,18.07
2022-09-14T19:00:21.623Z,18.06
2022-09-14T19:03:24.200Z,18.04
2022-09-14T19:06:26.431Z,18.04
2022-09-14T19:09:28.232Z,18.03
2022-09-14T19:12:31.131Z,18.02
2022-09-14T19:15:34.942Z,18.02
2022-09-14T19:18:37.737Z,18.02
2022-09-14T19:21:40.248Z,18.01
2022-09-14T19:24:43.506Z,18.00
2022-09-14T19:27:51.896Z,17.99
2022-09-14T19:30:54.818Z,17.99
2022-09-14T19:34:03.088Z,17.98
2022-09-14T19:37:05.286Z,17.97
2022-09-14T19:40:08.940Z,17.97
2022-09-14T19:43:11.336Z,17.96
2022-09-14T19:46:16.655Z,17.95
2022-09-14T19:49:24.481Z,17.95
2022-09-14T19:52:26.323Z,17.95
2022-09-14T19:55:28.128Z,17.95
2022-09-14T19:58:33.725Z,17.95
2022-09-14T20:01:38.693Z,17.95
2022-09-14T20:04:40.652Z,17.93
2022-09-14T20:07:44.881Z,17.93
2022-09-14T20:10:47.359Z,17.92
2022-09-14T20:13:52.439Z,17.92
2022-09-14T20:16:57.241Z,17.91
2022-09-14T20:19:58.731Z,17.91
2022-09-14T20:23:04.805Z,17.91
2022-09-14T20:26:09.019Z,17.90
2022-09-14T20:29:10.587Z,17.90
2022-09-14T20:32:19.569Z,17.89
2022-09-14T20:35:21.917Z,17.88
2022-09-14T20:38:23.865Z,17.88
2022-09-14T20:41:31.407Z,17.87
2022-09-14T20:44:37.047Z,17.87
2022-09-14T20:47:38.953Z,17.86
2022-09-14T20:50:50.353Z,17.85
2022-09-14T20:53:58.343Z,17.85
2022-09-14T20:57:04.233Z,17.84
2022-09-14T21:00:06.880Z,17.84
2022-09-14T21:03:17.670Z,17.83
2022-09-14T21:06:24.287Z,17.82
2022-09-14T21:09:26.594Z,17.81
2022-09-14T21:12:28.738Z,17.81
2022-09-14T21:15:34.339Z,17.80
2022-09-14T21:18:40.607Z,17.80
2022-09-14T21:21:43.071Z,17.80
2022-09-14T21:24:44.830Z,17.79
2022-09-14T21:27:49.011Z,17.78
2022-09-14T21:30:53.374Z,17.78
2022-09-14T21:33:58.934Z,17.77
2022-09-14T21:37:03.547Z,17.77
2022-09-14T21:40:05.915Z,17.76
2022-09-14T21:43:08.091Z,17.75
2022-09-14T21:46:10.963Z,17.75
2022-09-14T21:49:15.707Z,17.74
2022-09-14T21:52:17.367Z,17.73
2022-09-14T21:55:21.125Z,17.72
2022-09-14T21:58:22.868Z,17.72
2022-09-14T22:01:25.563Z,17.71
2022-09-14T22:04:27.153Z,17.71
2022-09-14T22:07:28.953Z,17.70
2022-09-14T22:10:30.467Z,17.69
2022-09-14T22:13:32.336Z,17.69
2022-09-14T22:16:36.325Z,17.68
2022-09-14T22:19:37.925Z,17.68
2022-09-14T22:22:42.153Z,17.68
2022-09-14T22:25:43.693Z,17.67
2022-09-14T22:28:47.493Z,17.67
2022-09-14T22:31:49.509Z,17.66
2022-09-14T22:34:51.110Z,17.66
2022-09-14T22:37:52.548Z,17.66
2022-09-14T22:40:55.380Z,17.65
2022-09-14T22:43:58.021Z,17.65
2022-09-14T22:46:59.570Z,17.65
2022-09-14T22:50:01.288Z,17.64
2022-09-14T22:53:02.841Z,17.64
2022-09-14T22:56:17.373Z,17.64
2022-09-14T22:59:18.846Z,17.65
2022-09-14T23:02:20.501Z,17.64
2022-09-14T23:05:22.071Z,17.63
2022-09-14T23:08:23.758Z,17.63
2022-09-14T23:11:25.569Z,17.63
2022-09-14T23:14:27.285Z,17.63
2022-09-14T23:17:28.768Z,17.62
2022-09-14T23:20:31.481Z,17.61
2022-09-14T23:23:33.192Z,17.60
2022-09-14T23:26:34.790Z,17.59
2022-09-14T23:29:36.258Z,17.59
2022-09-14T23:32:37.831Z,17.60
2022-09-14T23:35:39.289Z,17.59
2022-09-14T23:38:42.273Z,17.59
2022-09-14T23:41:43.710Z,17.58
2022-09-14T23:44:45.440Z,17.58
2022-09-14T23:47:47.039Z,17.58
2022-09-14T23:50:59.290Z,17.60
2022-09-14T23:54:00.765Z,17.59
2022-09-14T23:57:02.412Z,17.58
